General Aviation Weather

Text Reports

Enter one or more of the following location identifiers separated by a space:

Zip Code, Four-Character ICAO or Three-Character IATA airport codes.

METAR - Aviation Routine Weather Report
KEPH - Ephrata, Washington
Updated at 12:53 PM GMT on May 03, 2015 (5:53 AM PDT):
METAR KEPH 031253Z AUTO 35006KT 10SM CLR 08/M04 A2997 RMK AO2 SLP148 T00781039
TAF - Terminal Area Forecast
KEPH - Ephrata, Washington
Updated at 12:53 PM GMT on May 03, 2015 (5:53 AM PDT):
No TAF is currently available for this location.
Decoded:
No decoded TAF is available.
PIREP - Pilot Weather Report
KEPH - Ephrata, Washington
Updated at 12:53 PM GMT on May 03, 2015 (5:53 AM PDT):
No PIREP is currently available for this location.
AIRMET - Airmens Meteorological Information
KEPH - Ephrata, Washington
Updated at 12:53 PM GMT on May 03, 2015 (5:53 AM PDT):
No AIRMET is currently available for this location.
SIGMET - Significant Meteorological Information
KEPH - Ephrata, Washington
Updated at 12:53 PM GMT on May 03, 2015 (5:53 AM PDT):
No SIGMET is currently available for this location.
NOTAM - Notice to Airmen
KEPH - Ephrata, Washington
Updated at 12:53 PM GMT on May 03, 2015 (5:53 AM PDT):
No NOTAM is currently available for this location.
Forecast Area
KEPH - Ephrata, Washington
Updated at 12:53 PM GMT on May 03, 2015 (5:53 AM PDT):
No NOTAM is currently available for this location.
Aviation Weather Maps